Time;durP1;ratioP1;P1;durP2;ratioP2;P2;SDS_P1;SDS_P2;PMS_P1;PMS_P2;Temp;Humidity;BMP_temperature;BMP_pressure;BME280_temperature;BME280_humidity;BME280_pressure;Samples;Min_cycle;Max_cycle;Signal;HPM_P1;HPM_P2
2023/12/19 00:00:09;;;;;;;;;;;8.30;95.10;;;;;;6312551;22;20360;-86
2023/12/19 00:02:34;;;;;;;;;;;8.20;95.10;;;;;;6339865;22;20271;-85
2023/12/19 00:05:00;;;;;;;;;;;8.20;95.20;;;;;;6339950;22;19898;-85
2023/12/19 00:07:27;;;;;;;;;;;8.20;95.20;;;;;;6312151;22;20236;-85
2023/12/19 00:09:53;;;;;;;;;;;8.20;95.20;;;;;;6312109;22;19914;-85
2023/12/19 00:12:18;;;;;;;;;;;8.10;95.10;;;;;;6339883;22;19928;-85
2023/12/19 00:14:44;;;;;;;;;;;8.10;95.10;;;;;;6312297;22;19906;-87
2023/12/19 00:17:09;;;;;;;;;;;8.10;95.30;;;;;;6339567;22;20274;-84
2023/12/19 00:19:35;;;;;;;;;;;8.10;95.30;;;;;;6339874;22;19929;-84
2023/12/19 00:22:01;;;;;;;;;;;8.10;95.30;;;;;;6339918;22;19898;-84
2023/12/19 00:24:26;;;;;;;;;;;8.10;95.30;;;;;;6339822;22;19973;-84
2023/12/19 00:26:52;;;;;;;;;;;8.10;95.20;;;;;;6311643;22;19898;-84
2023/12/19 00:29:17;;;;;;;;;;;8.10;95.20;;;;;;6339964;22;19898;-84
2023/12/19 00:31:43;;;;;;;;;;;8.10;95.10;;;;;;6339575;22;19899;-84
2023/12/19 00:34:08;;;;;;;;;;;8.10;95.10;;;;;;6339778;22;19899;-84
2023/12/19 00:36:34;;;;;;;;;;;8.10;95.10;;;;;;6339453;22;19904;-84
2023/12/19 00:38:59;;;;;;;;;;;8.00;95.10;;;;;;6339910;22;19981;-85
2023/12/19 00:41:25;;;;;;;;;;;8.00;95.10;;;;;;6312103;22;20239;-83
2023/12/19 00:43:50;;;;;;;;;;;8.00;95.10;;;;;;6339732;22;19906;-84
2023/12/19 00:46:16;;;;;;;;;;;8.00;95.10;;;;;;6309367;22;19982;-85
2023/12/19 00:48:42;;;;;;;;;;;8.00;95.20;;;;;;6310416;22;19898;-84
2023/12/19 00:51:08;;;;;;;;;;;8.00;95.10;;;;;;6311177;22;19899;-84
2023/12/19 00:53:33;;;;;;;;;;;8.00;95.10;;;;;;6339523;22;19902;-85
2023/12/19 00:55:59;;;;;;;;;;;8.00;95.10;;;;;;6337476;22;20150;-85
2023/12/19 00:58:25;;;;;;;;;;;8.00;95.10;;;;;;6338931;22;20088;-85
2023/12/19 01:00:50;;;;;;;;;;;8.00;95.10;;;;;;6339761;22;20273;-85
2023/12/19 01:03:16;;;;;;;;;;;8.00;95.10;;;;;;6311920;22;19898;-85
2023/12/19 01:05:43;;;;;;;;;;;8.00;95.10;;;;;;6311789;22;19905;-85
2023/12/19 01:08:09;;;;;;;;;;;7.90;95.10;;;;;;6339737;22;19905;-86
2023/12/19 01:10:34;;;;;;;;;;;8.00;95.40;;;;;;6339574;22;19899;-86
2023/12/19 01:13:00;;;;;;;;;;;7.90;95.20;;;;;;6340031;22;20270;-85
2023/12/19 01:15:26;;;;;;;;;;;7.90;95.20;;;;;;6339488;22;19902;-85
2023/12/19 01:17:51;;;;;;;;;;;7.90;95.20;;;;;;6337884;22;19899;-85
2023/12/19 01:20:17;;;;;;;;;;;7.90;95.20;;;;;;6311426;22;20194;-85
2023/12/19 01:22:43;;;;;;;;;;;7.90;95.20;;;;;;6340071;22;19899;-85
2023/12/19 01:25:08;;;;;;;;;;;7.90;95.20;;;;;;6339575;22;19905;-84
2023/12/19 01:27:34;;;;;;;;;;;7.90;95.30;;;;;;6339725;22;19966;-85
2023/12/19 01:30:00;;;;;;;;;;;7.90;95.40;;;;;;6339355;22;19906;-85
2023/12/19 01:32:25;;;;;;;;;;;7.80;95.40;;;;;;6311741;22;19909;-88
2023/12/19 01:34:52;;;;;;;;;;;7.80;95.50;;;;;;6339507;22;19906;-86
2023/12/19 01:37:18;;;;;;;;;;;7.70;95.50;;;;;;6339410;22;19899;-87
2023/12/19 01:39:44;;;;;;;;;;;7.70;95.50;;;;;;6311569;22;19902;-87
2023/12/19 01:42:09;;;;;;;;;;;7.80;95.50;;;;;;6311550;22;19899;-88
2023/12/19 01:44:35;;;;;;;;;;;7.80;95.50;;;;;;6339981;22;19906;-87
2023/12/19 01:47:01;;;;;;;;;;;7.70;95.50;;;;;;6339599;22;19898;-87
2023/12/19 01:49:26;;;;;;;;;;;7.70;95.60;;;;;;6339395;22;19898;-87
2023/12/19 01:51:52;;;;;;;;;;;7.70;95.50;;;;;;6339306;22;19956;-86
2023/12/19 01:54:18;;;;;;;;;;;7.70;95.50;;;;;;6339174;22;19903;-85
2023/12/19 01:56:44;;;;;;;;;;;7.70;95.50;;;;;;6339215;22;19906;-86
2023/12/19 01:59:10;;;;;;;;;;;7.70;95.50;;;;;;6311527;22;20375;-85
2023/12/19 02:01:35;;;;;;;;;;;7.70;95.40;;;;;;6339193;22;19902;-85
2023/12/19 02:04:01;;;;;;;;;;;7.70;95.40;;;;;;6311924;22;20331;-85
2023/12/19 02:06:27;;;;;;;;;;;7.70;95.40;;;;;;6311819;22;19898;-84
2023/12/19 02:08:52;;;;;;;;;;;7.70;95.40;;;;;;6339282;22;19902;-84
2023/12/19 02:11:18;;;;;;;;;;;7.70;95.40;;;;;;6311547;22;19977;-84
2023/12/19 02:13:44;;;;;;;;;;;7.60;95.40;;;;;;6338701;22;19898;-84
2023/12/19 02:16:10;;;;;;;;;;;7.70;95.50;;;;;;6339395;22;19930;-84
2023/12/19 02:18:35;;;;;;;;;;;7.60;95.50;;;;;;6339134;22;20223;-85
2023/12/19 02:21:02;;;;;;;;;;;7.60;95.50;;;;;;6311595;22;20264;-84
2023/12/19 02:23:27;;;;;;;;;;;7.60;95.70;;;;;;6311522;22;20232;-83
2023/12/19 02:25:53;;;;;;;;;;;7.60;95.40;;;;;;6339221;22;19930;-84
2023/12/19 02:28:19;;;;;;;;;;;7.60;95.40;;;;;;6311190;22;20255;-84
2023/12/19 02:30:44;;;;;;;;;;;7.60;95.30;;;;;;6311426;22;19973;-84
2023/12/19 02:33:10;;;;;;;;;;;7.60;95.40;;;;;;6339409;22;19898;-84
2023/12/19 02:35:35;;;;;;;;;;;7.50;95.50;;;;;;6311578;22;19955;-84
2023/12/19 02:38:01;;;;;;;;;;;7.50;95.50;;;;;;6312034;22;20223;-84
2023/12/19 02:40:26;;;;;;;;;;;7.50;95.50;;;;;;6340323;22;19898;-84
2023/12/19 02:42:52;;;;;;;;;;;7.50;95.60;;;;;;6340839;22;19899;-84
2023/12/19 02:45:18;;;;;;;;;;;7.50;95.60;;;;;;6340781;22;20392;-83
2023/12/19 02:47:43;;;;;;;;;;;7.50;95.60;;;;;;6313307;22;19905;-84
2023/12/19 02:50:09;;;;;;;;;;;7.40;95.60;;;;;;6340594;22;19906;-84
2023/12/19 02:52:35;;;;;;;;;;;7.40;95.60;;;;;;6313262;22;19899;-84
2023/12/19 02:55:00;;;;;;;;;;;7.30;95.70;;;;;;6313314;22;20316;-84
2023/12/19 02:57:26;;;;;;;;;;;7.30;95.70;;;;;;6340752;22;19994;-85
2023/12/19 02:59:51;;;;;;;;;;;7.30;96.00;;;;;;6340527;22;19909;-85
2023/12/19 03:02:17;;;;;;;;;;;7.20;95.80;;;;;;6340693;22;20316;-85
2023/12/19 03:04:42;;;;;;;;;;;7.20;95.80;;;;;;6341051;22;19959;-85
2023/12/19 03:07:09;;;;;;;;;;;7.20;95.90;;;;;;6314501;22;19906;-85
2023/12/19 03:09:35;;;;;;;;;;;7.20;96.00;;;;;;6313165;22;19899;-86
2023/12/19 03:12:04;;;;;;;;;;;7.20;95.90;;;;;;6340590;22;19921;-85
2023/12/19 03:14:30;;;;;;;;;;;7.20;95.90;;;;;;6313116;22;19926;-86
2023/12/19 03:16:55;;;;;;;;;;;7.20;95.80;;;;;;6340618;22;19909;-86
2023/12/19 03:19:21;;;;;;;;;;;7.30;95.80;;;;;;6314092;22;19989;-91
2023/12/19 03:21:46;;;;;;;;;;;7.30;96.00;;;;;;6341777;22;19898;-91
2023/12/19 03:24:12;;;;;;;;;;;7.30;95.70;;;;;;6314153;22;19908;-90
2023/12/19 03:26:38;;;;;;;;;;;7.30;95.70;;;;;;6341563;22;19906;-91
2023/12/19 03:29:04;;;;;;;;;;;7.30;95.70;;;;;;6314470;22;19898;-91
2023/12/19 03:31:29;;;;;;;;;;;7.30;95.60;;;;;;6341622;22;19899;-90
2023/12/19 03:33:55;;;;;;;;;;;7.30;95.60;;;;;;6341711;22;19920;-91
2023/12/19 03:36:20;;;;;;;;;;;7.30;95.60;;;;;;6314129;22;19903;-91
2023/12/19 03:38:46;;;;;;;;;;;7.30;95.60;;;;;;6314015;22;19913;-91
2023/12/19 03:41:11;;;;;;;;;;;7.30;95.60;;;;;;6340162;22;20229;-91
2023/12/19 03:43:37;;;;;;;;;;;7.30;95.60;;;;;;6340490;22;19977;-91
2023/12/19 03:46:04;;;;;;;;;;;7.30;95.60;;;;;;6314238;22;19937;-90
2023/12/19 03:48:30;;;;;;;;;;;7.30;95.60;;;;;;6315083;22;19899;-90
2023/12/19 03:50:56;;;;;;;;;;;7.30;95.60;;;;;;6353654;22;19945;-88
2023/12/19 03:53:22;;;;;;;;;;;7.20;95.60;;;;;;6329654;22;19899;-89
2023/12/19 03:55:47;;;;;;;;;;;7.20;95.60;;;;;;6349559;22;19905;-88
2023/12/19 03:58:13;;;;;;;;;;;7.10;95.60;;;;;;6342303;22;20312;-89
2023/12/19 04:01:00;;;;;;;;;;;7.10;95.70;;;;;;6352748;22;19933;-89
2023/12/19 04:04:01;;;;;;;;;;;;;;;;;;;;;
2023/12/19 04:19:08;;;;;;;;;;;6.90;95.60;;;;;;6196865;23;19910;-90
2023/12/19 04:24:44;;;;;;;;;;;6.80;95.70;;;;;;6078089;23;19955;-89
2023/12/19 04:36:50;;;;;;;;;;;6.80;95.50;;;;;;5936363;24;19959;-91
2023/12/19 04:52:02;;;;;;;;;;;6.90;95.60;;;;;;6049619;23;19909;-90
2023/12/19 05:17:25;;;;;;;;;;;6.70;95.40;;;;;;6351076;22;19950;-91
2023/12/19 05:20:05;;;;;;;;;;;6.60;95.40;;;;;;6326286;22;19911;-91
2023/12/19 05:28:39;;;;;;;;;;;6.70;95.50;;;;;;6295209;22;20275;-91
2023/12/19 05:44:16;;;;;;;;;;;;;;;;;;;;;
2023/12/19 05:56:24;;;;;;;;;;;6.60;95.40;;;;;;6190664;23;19914;-83
2023/12/19 06:01:47;;;;;;;;;;;6.60;95.50;;;;;;6267816;22;19935;-84
2023/12/19 06:04:14;;;;;;;;;;;6.60;95.40;;;;;;6284972;22;20219;-83
2023/12/19 06:06:45;;;;;;;;;;;6.60;95.40;;;;;;6286616;22;19968;-83
2023/12/19 06:09:23;;;;;;;;;;;6.60;95.30;;;;;;6287363;22;19909;-84
2023/12/19 06:11:49;;;;;;;;;;;6.60;95.30;;;;;;6284386;22;19898;-83
2023/12/19 06:14:32;;;;;;;;;;;6.60;95.30;;;;;;6285578;22;19985;-83
2023/12/19 06:20:02;;;;;;;;;;;6.50;95.50;;;;;;6158128;23;20276;-83
2023/12/19 06:25:46;;;;;;;;;;;6.50;95.50;;;;;;6267168;22;19914;-84
2023/12/19 06:31:59;;;;;;;;;;;;;;;;;;;;;
2023/12/19 06:34:31;;;;;;;;;;;6.50;95.40;;;;;;6313628;22;19930;-83
2023/12/19 06:41:03;;;;;;;;;;;6.50;95.40;;;;;;6273603;22;19945;-82
2023/12/19 06:43:31;;;;;;;;;;;6.50;95.50;;;;;;6283628;22;19907;-82
2023/12/19 06:46:01;;;;;;;;;;;6.50;95.60;;;;;;6285985;22;19906;-89
2023/12/19 06:51:41;;;;;;;;;;;6.50;95.80;;;;;;6190080;23;19907;-89
2023/12/19 06:54:11;;;;;;;;;;;6.50;95.80;;;;;;6289497;22;19899;-90
2023/12/19 06:56:41;;;;;;;;;;;6.50;95.70;;;;;;6290067;22;19903;-89
2023/12/19 06:59:07;;;;;;;;;;;6.50;95.90;;;;;;6290408;22;19930;-89
2023/12/19 07:01:35;;;;;;;;;;;6.60;95.80;;;;;;6288959;22;19899;-89
2023/12/19 07:04:13;;;;;;;;;;;6.60;95.70;;;;;;6316380;22;19910;-89
2023/12/19 07:06:50;;;;;;;;;;;6.70;95.60;;;;;;6288299;22;19933;-88
2023/12/19 07:09:20;;;;;;;;;;;6.60;95.50;;;;;;6287911;22;19910;-90
2023/12/19 07:11:47;;;;;;;;;;;6.70;95.40;;;;;;6289023;22;19949;-88
2023/12/19 07:14:36;;;;;;;;;;;6.70;95.50;;;;;;6313011;22;19941;-87
2023/12/19 07:17:02;;;;;;;;;;;6.70;95.40;;;;;;6286140;22;20276;-88
2023/12/19 07:19:54;;;;;;;;;;;6.60;95.30;;;;;;6285583;22;19950;-88
2023/12/19 07:22:22;;;;;;;;;;;6.60;95.40;;;;;;6288512;22;19905;-91
2023/12/19 07:24:51;;;;;;;;;;;6.60;95.50;;;;;;6316450;22;19977;-90
2023/12/19 07:27:18;;;;;;;;;;;6.60;95.50;;;;;;6288056;22;19899;-90
2023/12/19 07:30:05;;;;;;;;;;;6.60;95.60;;;;;;6286450;22;19899;-89
2023/12/19 07:32:53;;;;;;;;;;;6.60;95.50;;;;;;6286241;22;19899;-88
2023/12/19 07:35:20;;;;;;;;;;;6.60;95.50;;;;;;6314556;22;19933;-89
2023/12/19 07:37:47;;;;;;;;;;;6.60;95.40;;;;;;6286212;22;19902;-88
2023/12/19 07:40:17;;;;;;;;;;;6.60;95.30;;;;;;6286312;22;19902;-87
2023/12/19 07:42:53;;;;;;;;;;;6.60;95.30;;;;;;6313717;22;19905;-89
2023/12/19 07:45:19;;;;;;;;;;;6.60;95.40;;;;;;6286474;22;19906;-88
2023/12/19 07:47:46;;;;;;;;;;;6.60;95.40;;;;;;6290243;22;19914;-88
2023/12/19 07:50:12;;;;;;;;;;;6.70;95.40;;;;;;6318313;22;19899;-87
2023/12/19 07:52:40;;;;;;;;;;;6.80;95.40;;;;;;6316124;22;19967;-86
2023/12/19 07:55:10;;;;;;;;;;;6.80;95.30;;;;;;6290188;22;19905;-86
2023/12/19 07:57:39;;;;;;;;;;;6.80;95.20;;;;;;6315642;22;19898;-85
2023/12/19 08:00:08;;;;;;;;;;;6.80;95.10;;;;;;6324056;22;19903;-88
2023/12/19 08:02:37;;;;;;;;;;;6.80;95.00;;;;;;6291577;22;19903;-88
2023/12/19 08:05:25;;;;;;;;;;;6.90;95.00;;;;;;6288613;22;19906;-85
2023/12/19 08:07:52;;;;;;;;;;;6.80;95.10;;;;;;6318878;22;19903;-88
2023/12/19 08:10:19;;;;;;;;;;;6.90;95.50;;;;;;6295262;22;19909;-85
2023/12/19 08:12:50;;;;;;;;;;;7.00;95.20;;;;;;6314844;22;19926;-85
2023/12/19 08:18:44;;;;;;;;;;;7.10;95.00;;;;;;6311499;22;19899;-87
2023/12/19 08:21:10;;;;;;;;;;;7.00;95.00;;;;;;6234248;22;19922;-88
2023/12/19 08:23:38;;;;;;;;;;;7.00;95.10;;;;;;6307132;22;19911;-87
2023/12/19 08:26:09;;;;;;;;;;;7.00;95.10;;;;;;6288228;22;20232;-90
2023/12/19 08:29:07;;;;;;;;;;;7.00;95.20;;;;;;6295338;22;19903;-89
2023/12/19 08:31:34;;;;;;;;;;;7.00;95.20;;;;;;6290649;22;19903;-85
2023/12/19 08:34:03;;;;;;;;;;;7.20;95.30;;;;;;6293995;22;19898;-92
2023/12/19 08:36:29;;;;;;;;;;;7.20;95.20;;;;;;6297077;22;19906;-90
2023/12/19 08:38:55;;;;;;;;;;;7.30;95.20;;;;;;6297121;22;19942;-90
2023/12/19 08:41:22;;;;;;;;;;;7.40;95.20;;;;;;6298257;22;19906;-89
2023/12/19 08:43:49;;;;;;;;;;;7.50;95.10;;;;;;6297901;22;19899;-89
2023/12/19 08:46:20;;;;;;;;;;;7.60;95.00;;;;;;6297127;22;19906;-90
2023/12/19 08:48:49;;;;;;;;;;;7.70;94.80;;;;;;6298941;22;19906;-91
2023/12/19 08:51:17;;;;;;;;;;;7.80;94.70;;;;;;6287005;22;19902;-89
2023/12/19 08:53:43;;;;;;;;;;;7.80;94.60;;;;;;6287772;22;19905;-90
2023/12/19 08:56:10;;;;;;;;;;;7.80;94.30;;;;;;6288827;22;19922;-90
2023/12/19 08:58:43;;;;;;;;;;;7.80;94.00;;;;;;6291472;22;19906;-91
2023/12/19 09:01:14;;;;;;;;;;;7.80;94.10;;;;;;6291976;22;20312;-92
2023/12/19 09:03:42;;;;;;;;;;;7.80;94.20;;;;;;6289177;22;19898;-90
2023/12/19 09:06:08;;;;;;;;;;;7.80;94.40;;;;;;6288455;22;19899;-90
2023/12/19 09:08:35;;;;;;;;;;;7.80;94.50;;;;;;6315212;22;20335;-91
2023/12/19 09:11:05;;;;;;;;;;;7.80;93.90;;;;;;6287443;22;19899;-93
2023/12/19 09:13:33;;;;;;;;;;;7.90;94.10;;;;;;6288393;22;19899;-93
2023/12/19 09:16:06;;;;;;;;;;;7.90;94.00;;;;;;6289295;22;19899;-93
2023/12/19 09:18:32;;;;;;;;;;;7.90;93.90;;;;;;6292034;22;19903;-92
2023/12/19 09:21:03;;;;;;;;;;;7.90;93.90;;;;;;6287930;22;19899;-92
2023/12/19 09:23:45;;;;;;;;;;;8.00;94.10;;;;;;6292329;22;19949;-90
2023/12/19 09:26:13;;;;;;;;;;;8.20;94.20;;;;;;6293373;22;19909;-89
2023/12/19 09:28:41;;;;;;;;;;;8.30;94.30;;;;;;6287127;22;19899;-90
2023/12/19 09:31:08;;;;;;;;;;;8.40;94.20;;;;;;6285065;22;19952;-87
2023/12/19 09:33:38;;;;;;;;;;;8.50;94.10;;;;;;6284778;22;19899;-89
2023/12/19 09:36:18;;;;;;;;;;;8.60;94.00;;;;;;6285530;22;19899;-91
2023/12/19 09:38:47;;;;;;;;;;;8.80;93.90;;;;;;6288200;22;19913;-92
2023/12/19 09:41:20;;;;;;;;;;;8.80;93.50;;;;;;6288650;22;19906;-94
2023/12/19 09:43:47;;;;;;;;;;;8.90;93.60;;;;;;6289601;22;19953;-92
2023/12/19 09:46:16;;;;;;;;;;;9.00;93.50;;;;;;6289440;22;19899;-96
2023/12/19 09:48:46;;;;;;;;;;;9.10;93.50;;;;;;6287078;22;19944;-82
2023/12/19 09:51:23;;;;;;;;;;;9.20;93.50;;;;;;6286123;22;19964;-83
2023/12/19 09:53:50;;;;;;;;;;;9.40;93.40;;;;;;6312241;22;19905;-82
2023/12/19 09:56:19;;;;;;;;;;;9.50;93.30;;;;;;6283428;22;19909;-84
2023/12/19 09:59:00;;;;;;;;;;;9.60;93.20;;;;;;6284975;22;19924;-84
2023/12/19 10:05:26;;;;;;;;;;;9.80;92.90;;;;;;6293306;22;19899;-83
2023/12/19 10:08:03;;;;;;;;;;;10.00;92.80;;;;;;6283393;22;19905;-84
2023/12/19 10:10:52;;;;;;;;;;;10.10;92.70;;;;;;6284503;22;19994;-84
2023/12/19 10:13:36;;;;;;;;;;;10.10;92.60;;;;;;6284426;22;19898;-82
2023/12/19 10:16:04;;;;;;;;;;;10.30;92.40;;;;;;6312481;22;20267;-83
2023/12/19 10:18:30;;;;;;;;;;;10.40;92.00;;;;;;6284956;22;19992;-83
2023/12/19 10:21:19;;;;;;;;;;;10.50;92.00;;;;;;6313064;22;19910;-83
2023/12/19 10:23:46;;;;;;;;;;;10.70;91.80;;;;;;6285861;22;19964;-83
2023/12/19 10:26:13;;;;;;;;;;;10.90;91.80;;;;;;6284718;22;19948;-84
2023/12/19 10:28:43;;;;;;;;;;;11.10;91.20;;;;;;6285914;22;19903;-83
2023/12/19 10:31:12;;;;;;;;;;;11.20;91.40;;;;;;6312544;22;19906;-84
2023/12/19 10:33:45;;;;;;;;;;;11.50;91.20;;;;;;6284270;22;19899;-83
2023/12/19 10:36:26;;;;;;;;;;;11.70;90.40;;;;;;6287528;22;20178;-83
2023/12/19 10:38:53;;;;;;;;;;;11.90;90.80;;;;;;6284569;22;19903;-84
2023/12/19 10:41:22;;;;;;;;;;;12.20;89.40;;;;;;6283960;22;19905;-83
2023/12/19 10:43:52;;;;;;;;;;;12.30;89.10;;;;;;6312029;22;19907;-84
2023/12/19 10:46:19;;;;;;;;;;;12.40;88.30;;;;;;6311195;22;20276;-84
2023/12/19 10:48:47;;;;;;;;;;;12.50;88.40;;;;;;6284471;22;19899;-84
2023/12/19 10:51:17;;;;;;;;;;;12.60;88.10;;;;;;6285821;22;19905;-84
2023/12/19 10:53:58;;;;;;;;;;;12.70;87.50;;;;;;6312638;22;19945;-84
2023/12/19 10:56:25;;;;;;;;;;;12.80;87.90;;;;;;6284778;22;19899;-84
2023/12/19 10:58:55;;;;;;;;;;;13.00;87.50;;;;;;6311428;22;19903;-84
2023/12/19 11:01:26;;;;;;;;;;;13.00;86.90;;;;;;6311684;22;19939;-84
2023/12/19 11:03:58;;;;;;;;;;;13.10;86.00;;;;;;6285570;22;19898;-84
2023/12/19 11:06:27;;;;;;;;;;;13.10;84.80;;;;;;6286166;22;19895;-84
2023/12/19 11:08:55;;;;;;;;;;;13.10;86.00;;;;;;6285836;22;19899;-84
2023/12/19 11:11:25;;;;;;;;;;;13.10;84.80;;;;;;6285575;22;19898;-84
2023/12/19 11:13:52;;;;;;;;;;;13.10;85.20;;;;;;6288636;22;19902;-84
2023/12/19 11:16:26;;;;;;;;;;;13.20;86.50;;;;;;6290309;22;19982;-84
2023/12/19 11:18:55;;;;;;;;;;;13.40;86.10;;;;;;6289349;22;19956;-84
2023/12/19 11:21:29;;;;;;;;;;;13.50;86.20;;;;;;6315511;22;19902;-84
2023/12/19 11:24:21;;;;;;;;;;;;;;;;;;;;;
2023/12/19 11:26:54;;;;;;;;;;;13.90;86.20;;;;;;6316572;22;19926;-84
2023/12/19 11:29:38;;;;;;;;;;;14.20;86.10;;;;;;6289452;22;19905;-84
2023/12/19 11:32:24;;;;;;;;;;;14.50;86.20;;;;;;6311146;22;20241;-85
2023/12/19 11:34:50;;;;;;;;;;;14.80;86.00;;;;;;6310553;22;20237;-84
2023/12/19 11:37:20;;;;;;;;;;;15.20;85.50;;;;;;6284021;22;19910;-85
2023/12/19 11:39:46;;;;;;;;;;;15.60;84.30;;;;;;6311305;22;19903;-85
2023/12/19 11:42:30;;;;;;;;;;;16.20;83.10;;;;;;6283809;22;20332;-85
2023/12/19 11:44:58;;;;;;;;;;;17.10;81.40;;;;;;6284268;22;19922;-85
2023/12/19 11:47:32;;;;;;;;;;;18.40;78.10;;;;;;6284414;22;19997;-85
2023/12/19 11:52:57;;;;;;;;;;;20.50;72.10;;;;;;6171086;22;19923;-84
2023/12/19 11:55:24;;;;;;;;;;;21.50;68.40;;;;;;6260973;22;19915;-84
2023/12/19 11:57:51;;;;;;;;;;;22.20;65.50;;;;;;6273551;22;19907;-84
2023/12/19 12:00:19;;;;;;;;;;;22.80;63.30;;;;;;6251308;22;19957;-84
2023/12/19 12:02:45;;;;;;;;;;;23.40;62.20;;;;;;6277806;22;19907;-84
2023/12/19 12:05:13;;;;;;;;;;;23.80;60.40;;;;;;6252169;22;19900;-84
2023/12/19 12:07:40;;;;;;;;;;;24.10;58.80;;;;;;6276926;22;19949;-84
2023/12/19 12:10:06;;;;;;;;;;;24.30;56.80;;;;;;6278632;22;20221;-84
2023/12/19 12:12:35;;;;;;;;;;;24.50;57.30;;;;;;6252482;22;19899;-84
2023/12/19 12:15:14;;;;;;;;;;;24.70;56.50;;;;;;6280037;22;19945;-84
2023/12/19 12:17:42;;;;;;;;;;;24.80;56.10;;;;;;6252962;22;19905;-84
2023/12/19 12:20:11;;;;;;;;;;;24.80;54.60;;;;;;6280438;22;19903;-84
2023/12/19 12:22:37;;;;;;;;;;;24.80;54.30;;;;;;6252927;22;19899;-83
2023/12/19 12:25:03;;;;;;;;;;;24.80;53.60;;;;;;6281091;22;19900;-83
2023/12/19 12:27:30;;;;;;;;;;;24.60;52.90;;;;;;6254827;22;19906;-83
2023/12/19 12:29:57;;;;;;;;;;;24.50;52.90;;;;;;6279352;22;20388;-83
2023/12/19 12:32:27;;;;;;;;;;;24.30;52.20;;;;;;6279728;22;19899;-84
2023/12/19 12:34:53;;;;;;;;;;;24.10;53.20;;;;;;6252981;22;20347;-84
2023/12/19 12:37:22;;;;;;;;;;;23.80;53.20;;;;;;6279586;22;20025;-83
2023/12/19 12:39:50;;;;;;;;;;;23.50;53.20;;;;;;6252441;22;19903;-83
2023/12/19 12:42:20;;;;;;;;;;;23.10;53.50;;;;;;6252488;22;19934;-84
2023/12/19 12:45:00;;;;;;;;;;;22.70;54.60;;;;;;6280468;22;19921;-83
2023/12/19 12:47:27;;;;;;;;;;;22.40;55.30;;;;;;6281025;22;19899;-83
2023/12/19 12:50:21;;;;;;;;;;;22.10;55.50;;;;;;6253680;22;19978;-83
2023/12/19 12:52:49;;;;;;;;;;;21.80;56.60;;;;;;6281755;22;19903;-83
2023/12/19 12:55:22;;;;;;;;;;;21.70;58.10;;;;;;6249584;22;20321;-83
2023/12/19 12:57:59;;;;;;;;;;;21.60;58.50;;;;;;6274311;22;19976;-83
2023/12/19 13:00:25;;;;;;;;;;;21.60;58.20;;;;;;6248668;23;19990;-83
2023/12/19 13:02:52;;;;;;;;;;;21.60;58.00;;;;;;6250375;22;19949;-83
2023/12/19 13:05:18;;;;;;;;;;;21.50;56.90;;;;;;6250582;22;19906;-84
2023/12/19 13:07:44;;;;;;;;;;;21.40;57.80;;;;;;6250396;22;19934;-83
2023/12/19 13:10:10;;;;;;;;;;;21.30;59.00;;;;;;6248012;22;19946;-83
2023/12/19 13:12:44;;;;;;;;;;;21.10;57.40;;;;;;6248174;22;20211;-83
2023/12/19 13:15:14;;;;;;;;;;;21.00;57.10;;;;;;6247695;22;19907;-83
2023/12/19 13:17:40;;;;;;;;;;;20.80;57.10;;;;;;6250336;22;19983;-83
2023/12/19 13:20:10;;;;;;;;;;;20.60;57.40;;;;;;6248145;22;19903;-83
2023/12/19 13:22:35;;;;;;;;;;;20.40;57.40;;;;;;6249971;22;19899;-83
2023/12/19 13:25:04;;;;;;;;;;;20.20;57.60;;;;;;6273651;22;20310;-83
2023/12/19 13:27:30;;;;;;;;;;;19.80;57.90;;;;;;6247981;22;19903;-83
2023/12/19 13:30:00;;;;;;;;;;;19.40;58.00;;;;;;6248257;23;20294;-83
2023/12/19 13:32:26;;;;;;;;;;;19.00;58.80;;;;;;6247308;22;20256;-83
2023/12/19 13:34:54;;;;;;;;;;;18.70;60.40;;;;;;6247455;22;19899;-83
2023/12/19 13:37:23;;;;;;;;;;;18.30;61.20;;;;;;6272562;22;19934;-83
2023/12/19 13:39:50;;;;;;;;;;;17.90;62.40;;;;;;6248275;22;19952;-83
2023/12/19 13:42:16;;;;;;;;;;;17.60;63.00;;;;;;6248561;22;19910;-83
2023/12/19 13:44:46;;;;;;;;;;;17.30;63.60;;;;;;6273120;22;19934;-83
2023/12/19 13:47:24;;;;;;;;;;;17.00;64.90;;;;;;6246864;23;20289;-83
2023/12/19 13:49:52;;;;;;;;;;;16.90;66.50;;;;;;6273375;22;19927;-83
2023/12/19 13:52:18;;;;;;;;;;;16.60;66.50;;;;;;6247843;22;19949;-83
2023/12/19 13:54:43;;;;;;;;;;;16.50;67.00;;;;;;6273455;22;19911;-83
2023/12/19 13:57:10;;;;;;;;;;;16.30;67.60;;;;;;6247029;22;19900;-83
2023/12/19 13:59:37;;;;;;;;;;;16.20;67.60;;;;;;6247873;22;20281;-83
2023/12/19 14:02:22;;;;;;;;;;;;;;;;;;;;;
2023/12/19 14:04:48;;;;;;;;;;;15.90;68.80;;;;;;6249027;23;19974;-83
2023/12/19 14:07:19;;;;;;;;;;;15.80;69.40;;;;;;6249869;23;19926;-83
2023/12/19 14:09:47;;;;;;;;;;;15.70;70.10;;;;;;6273696;22;19990;-83
2023/12/19 14:12:34;;;;;;;;;;;15.60;70.50;;;;;;6250537;22;19938;-83
2023/12/19 14:15:15;;;;;;;;;;;15.50;70.70;;;;;;6247161;23;19906;-83
2023/12/19 14:17:42;;;;;;;;;;;15.40;71.80;;;;;;6247394;22;19906;-83
2023/12/19 14:20:09;;;;;;;;;;;15.30;72.00;;;;;;6247547;22;20006;-83
2023/12/19 14:22:35;;;;;;;;;;;15.20;72.70;;;;;;6248742;22;19899;-83
2023/12/19 14:25:02;;;;;;;;;;;15.10;73.60;;;;;;6248401;22;20257;-83
2023/12/19 14:27:28;;;;;;;;;;;15.00;73.80;;;;;;6248618;22;20230;-83
2023/12/19 14:29:57;;;;;;;;;;;15.00;74.30;;;;;;6247890;22;19900;-83
2023/12/19 14:32:24;;;;;;;;;;;14.90;74.80;;;;;;6246606;22;19899;-83
2023/12/19 14:34:51;;;;;;;;;;;14.80;75.20;;;;;;6271869;22;20322;-83
2023/12/19 14:37:27;;;;;;;;;;;14.70;75.90;;;;;;6248381;22;19900;-83
2023/12/19 14:39:56;;;;;;;;;;;14.60;76.20;;;;;;6247894;22;19986;-83
2023/12/19 14:42:32;;;;;;;;;;;14.60;76.10;;;;;;6251044;22;20265;-82
2023/12/19 14:44:58;;;;;;;;;;;14.50;75.90;;;;;;6251776;22;19906;-83
2023/12/19 14:47:24;;;;;;;;;;;14.50;76.50;;;;;;6257329;22;19899;-83
2023/12/19 14:49:50;;;;;;;;;;;14.30;76.90;;;;;;6283265;22;19900;-83
2023/12/19 14:52:19;;;;;;;;;;;14.30;77.30;;;;;;6256509;22;19900;-83
2023/12/19 14:54:45;;;;;;;;;;;14.20;77.30;;;;;;6256980;22;19919;-83
2023/12/19 14:57:12;;;;;;;;;;;14.10;77.40;;;;;;6255622;23;19899;-83
2023/12/19 14:59:37;;;;;;;;;;;14.00;77.50;;;;;;6254063;22;19903;-83
2023/12/19 15:02:03;;;;;;;;;;;14.00;77.70;;;;;;6277920;22;19899;-83
2023/12/19 15:04:32;;;;;;;;;;;14.00;78.20;;;;;;6252725;22;19900;-83
2023/12/19 15:06:58;;;;;;;;;;;13.90;78.80;;;;;;6252671;22;20233;-83
2023/12/19 15:09:23;;;;;;;;;;;13.80;79.40;;;;;;6251152;23;20293;-83
2023/12/19 15:11:49;;;;;;;;;;;13.70;79.90;;;;;;6248743;22;20337;-83
2023/12/19 15:14:15;;;;;;;;;;;13.70;80.50;;;;;;6248552;22;19903;-84
2023/12/19 15:16:41;;;;;;;;;;;13.60;80.80;;;;;;6249387;22;19900;-84
2023/12/19 15:19:07;;;;;;;;;;;13.50;81.40;;;;;;6248560;22;20314;-83
2023/12/19 15:21:33;;;;;;;;;;;13.40;81.40;;;;;;6273695;22;20292;-83
2023/12/19 15:23:59;;;;;;;;;;;13.40;81.70;;;;;;6247907;22;19900;-84
2023/12/19 15:26:25;;;;;;;;;;;13.30;82.10;;;;;;6247524;22;19926;-83
2023/12/19 15:28:51;;;;;;;;;;;13.20;82.60;;;;;;6272696;22;19899;-83
2023/12/19 15:31:17;;;;;;;;;;;13.20;83.00;;;;;;6247305;22;20289;-84
2023/12/19 15:33:44;;;;;;;;;;;13.10;83.30;;;;;;6247218;22;19900;-83
2023/12/19 15:36:16;;;;;;;;;;;13.00;83.40;;;;;;6273475;22;19899;-83
2023/12/19 15:38:42;;;;;;;;;;;12.90;83.80;;;;;;6246882;22;19910;-83
2023/12/19 15:41:08;;;;;;;;;;;12.90;84.10;;;;;;6246990;23;20310;-84
2023/12/19 15:43:37;;;;;;;;;;;12.80;84.60;;;;;;6248677;22;19903;-84
2023/12/19 15:46:07;;;;;;;;;;;12.70;84.80;;;;;;6246264;22;20285;-84
2023/12/19 15:48:33;;;;;;;;;;;12.70;85.10;;;;;;6247517;22;19904;-84
2023/12/19 15:50:59;;;;;;;;;;;12.60;85.20;;;;;;6246910;22;20365;-84
2023/12/19 15:53:25;;;;;;;;;;;12.50;85.50;;;;;;6254132;22;19960;-84
2023/12/19 15:55:53;;;;;;;;;;;12.50;85.90;;;;;;6277570;22;20280;-84
2023/12/19 15:58:21;;;;;;;;;;;12.40;86.10;;;;;;6249472;22;20344;-82
2023/12/19 16:00:48;;;;;;;;;;;12.30;86.50;;;;;;6216021;23;20249;-83
2023/12/19 16:03:14;;;;;;;;;;;12.30;87.10;;;;;;6189716;23;20323;-83
2023/12/19 16:05:41;;;;;;;;;;;12.30;87.40;;;;;;6193376;23;19900;-83
2023/12/19 16:08:07;;;;;;;;;;;12.20;87.60;;;;;;6219269;23;19935;-83
2023/12/19 16:10:33;;;;;;;;;;;12.20;87.80;;;;;;6190903;23;19915;-83
2023/12/19 16:12:59;;;;;;;;;;;12.10;88.20;;;;;;6190655;23;19979;-83
2023/12/19 16:15:25;;;;;;;;;;;12.00;88.50;;;;;;6189427;23;19931;-84
2023/12/19 16:17:51;;;;;;;;;;;12.00;88.70;;;;;;6186957;23;19900;-85
2023/12/19 16:20:20;;;;;;;;;;;11.90;88.90;;;;;;6189835;23;19931;-85
2023/12/19 16:22:46;;;;;;;;;;;11.80;89.10;;;;;;6193545;23;19927;-85
2023/12/19 16:25:12;;;;;;;;;;;11.70;89.40;;;;;;6191079;23;19922;-85
2023/12/19 16:27:39;;;;;;;;;;;11.70;89.70;;;;;;6216063;23;19906;-83
2023/12/19 16:30:05;;;;;;;;;;;11.60;89.90;;;;;;6216320;23;20328;-84
2023/12/19 16:32:33;;;;;;;;;;;11.60;90.10;;;;;;6216591;23;19904;-83
2023/12/19 16:35:00;;;;;;;;;;;11.60;90.20;;;;;;6219751;23;20298;-83
2023/12/19 16:37:28;;;;;;;;;;;11.50;90.40;;;;;;6216895;23;19900;-83